Terminal Aerodrome Forecast
Issued by NWS

Home | Current Version | Previous Version | Graphics & Text | Print | Product List | Glossary On
Versions: 1 2 3 4 5 6 7 8 9 10 11 12 13 14 15 16
000
FTUS43 KIWX 131700
TAFSBN
TAF
KSBN 131720Z 1318/1418 21016G24KT P6SM BKN060
     FM132100 18016G24KT P6SM VCTS BKN040CB
     FM140600 19016G24KT 5SM SHRA VCTS OVC025CB
     FM141200 27016G24KT 3SM -SHRA OVC008=

USA.gov is the U.S. government's official web portal to all federal, state and local government web resources and services.